sensor_id;sensor_type;location;lat;lon;timestamp;temperature;humidity
62809;DHT22;48848;39.002;-94.584;2023-08-21T00:00:08;23.60;61.90
62809;DHT22;48848;39.002;-94.584;2023-08-21T00:02:34;23.50;62.10
62809;DHT22;48848;39.002;-94.584;2023-08-21T00:05:00;23.50;61.70
62809;DHT22;48848;39.002;-94.584;2023-08-21T00:07:25;23.60;61.70
62809;DHT22;48848;39.002;-94.584;2023-08-21T00:09:51;23.50;61.20
62809;DHT22;48848;39.002;-94.584;2023-08-21T00:12:17;23.50;61.00
62809;DHT22;48848;39.002;-94.584;2023-08-21T00:14:43;23.50;60.50
62809;DHT22;48848;39.002;-94.584;2023-08-21T00:17:09;23.50;60.60
62809;DHT22;48848;39.002;-94.584;2023-08-21T00:19:34;23.50;60.40
62809;DHT22;48848;39.002;-94.584;2023-08-21T00:22:00;23.50;59.90
62809;DHT22;48848;39.002;-94.584;2023-08-21T00:24:26;23.50;60.20
62809;DHT22;48848;39.002;-94.584;2023-08-21T00:26:52;23.50;59.90
62809;DHT22;48848;39.002;-94.584;2023-08-21T00:29:18;23.50;59.80
62809;DHT22;48848;39.002;-94.584;2023-08-21T00:31:44;23.50;59.70
62809;DHT22;48848;39.002;-94.584;2023-08-21T00:34:10;23.50;59.40
62809;DHT22;48848;39.002;-94.584;2023-08-21T00:36:36;23.50;59.40
62809;DHT22;48848;39.002;-94.584;2023-08-21T00:39:02;23.50;59.10
62809;DHT22;48848;39.002;-94.584;2023-08-21T00:41:27;23.50;58.90
62809;DHT22;48848;39.002;-94.584;2023-08-21T00:43:53;23.40;58.70
62809;DHT22;48848;39.002;-94.584;2023-08-21T00:46:19;23.40;58.90
62809;DHT22;48848;39.002;-94.584;2023-08-21T00:48:45;23.40;58.60
62809;DHT22;48848;39.002;-94.584;2023-08-21T00:51:11;23.40;58.60
62809;DHT22;48848;39.002;-94.584;2023-08-21T00:53:39;23.40;58.50
62809;DHT22;48848;39.002;-94.584;2023-08-21T00:56:05;23.40;58.40
62809;DHT22;48848;39.002;-94.584;2023-08-21T00:58:31;23.40;58.20
62809;DHT22;48848;39.002;-94.584;2023-08-21T01:00:57;23.40;58.20
62809;DHT22;48848;39.002;-94.584;2023-08-21T01:03:23;23.40;58.20
62809;DHT22;48848;39.002;-94.584;2023-08-21T01:05:49;23.40;58.10
62809;DHT22;48848;39.002;-94.584;2023-08-21T01:13:57;23.40;58.00
62809;DHT22;48848;39.002;-94.584;2023-08-21T01:16:02;23.40;57.90
62809;DHT22;48848;39.002;-94.584;2023-08-21T01:18:28;23.40;58.00
62809;DHT22;48848;39.002;-94.584;2023-08-21T01:20:55;23.40;58.00
62809;DHT22;48848;39.002;-94.584;2023-08-21T01:23:28;23.40;58.00
62809;DHT22;48848;39.002;-94.584;2023-08-21T01:25:54;23.40;58.10
62809;DHT22;48848;39.002;-94.584;2023-08-21T01:28:20;23.40;58.00
62809;DHT22;48848;39.002;-94.584;2023-08-21T01:30:46;23.30;58.00
62809;DHT22;48848;39.002;-94.584;2023-08-21T01:33:13;23.30;57.90
62809;DHT22;48848;39.002;-94.584;2023-08-21T01:35:40;23.30;57.90
62809;DHT22;48848;39.002;-94.584;2023-08-21T01:38:06;23.20;57.80
62809;DHT22;48848;39.002;-94.584;2023-08-21T01:40:32;23.20;57.70
62809;DHT22;48848;39.002;-94.584;2023-08-21T01:42:58;23.30;57.60
62809;DHT22;48848;39.002;-94.584;2023-08-21T01:45:24;23.30;57.60
62809;DHT22;48848;39.002;-94.584;2023-08-21T01:47:50;23.20;57.60
62809;DHT22;48848;39.002;-94.584;2023-08-21T01:50:16;23.20;57.70
62809;DHT22;48848;39.002;-94.584;2023-08-21T01:52:42;23.30;57.70
62809;DHT22;48848;39.002;-94.584;2023-08-21T01:55:08;23.30;57.70
62809;DHT22;48848;39.002;-94.584;2023-08-21T01:57:34;23.30;57.70
62809;DHT22;48848;39.002;-94.584;2023-08-21T01:59:59;23.30;58.10
62809;DHT22;48848;39.002;-94.584;2023-08-21T02:02:25;23.30;57.90
62809;DHT22;48848;39.002;-94.584;2023-08-21T02:04:51;23.30;58.00
62809;DHT22;48848;39.002;-94.584;2023-08-21T02:07:17;23.30;58.00
62809;DHT22;48848;39.002;-94.584;2023-08-21T02:09:43;23.30;57.80
62809;DHT22;48848;39.002;-94.584;2023-08-21T02:12:08;23.30;57.10
62809;DHT22;48848;39.002;-94.584;2023-08-21T02:14:34;23.40;57.10
62809;DHT22;48848;39.002;-94.584;2023-08-21T02:17:00;23.30;56.70
62809;DHT22;48848;39.002;-94.584;2023-08-21T02:19:27;23.30;56.60
62809;DHT22;48848;39.002;-94.584;2023-08-21T02:21:53;23.30;56.40
62809;DHT22;48848;39.002;-94.584;2023-08-21T02:24:19;23.30;56.40
62809;DHT22;48848;39.002;-94.584;2023-08-21T02:26:45;23.30;56.60
62809;DHT22;48848;39.002;-94.584;2023-08-21T02:29:11;23.30;56.20
62809;DHT22;48848;39.002;-94.584;2023-08-21T02:31:37;23.20;56.50
62809;DHT22;48848;39.002;-94.584;2023-08-21T02:34:03;23.20;56.30
62809;DHT22;48848;39.002;-94.584;2023-08-21T02:36:28;23.20;56.30
62809;DHT22;48848;39.002;-94.584;2023-08-21T02:38:55;23.30;56.10
62809;DHT22;48848;39.002;-94.584;2023-08-21T02:41:21;23.20;55.90
62809;DHT22;48848;39.002;-94.584;2023-08-21T02:43:47;23.20;56.00
62809;DHT22;48848;39.002;-94.584;2023-08-21T02:46:12;23.20;56.00
62809;DHT22;48848;39.002;-94.584;2023-08-21T02:48:38;23.20;55.80
62809;DHT22;48848;39.002;-94.584;2023-08-21T02:51:04;23.20;55.80
62809;DHT22;48848;39.002;-94.584;2023-08-21T02:53:30;23.20;56.00
62809;DHT22;48848;39.002;-94.584;2023-08-21T02:55:56;23.20;55.90
62809;DHT22;48848;39.002;-94.584;2023-08-21T02:58:22;23.20;55.70
62809;DHT22;48848;39.002;-94.584;2023-08-21T03:00:47;23.20;55.70
62809;DHT22;48848;39.002;-94.584;2023-08-21T03:03:14;23.20;55.60
62809;DHT22;48848;39.002;-94.584;2023-08-21T03:05:40;23.10;55.60
62809;DHT22;48848;39.002;-94.584;2023-08-21T03:08:05;23.10;55.60
62809;DHT22;48848;39.002;-94.584;2023-08-21T03:10:31;23.20;55.60
62809;DHT22;48848;39.002;-94.584;2023-08-21T03:12:59;23.10;55.60
62809;DHT22;48848;39.002;-94.584;2023-08-21T03:15:25;23.10;55.80
62809;DHT22;48848;39.002;-94.584;2023-08-21T03:17:51;23.00;55.50
62809;DHT22;48848;39.002;-94.584;2023-08-21T03:20:16;23.10;55.50
62809;DHT22;48848;39.002;-94.584;2023-08-21T03:22:46;23.10;55.40
62809;DHT22;48848;39.002;-94.584;2023-08-21T03:25:12;23.00;55.30
62809;DHT22;48848;39.002;-94.584;2023-08-21T03:27:38;23.10;55.30
62809;DHT22;48848;39.002;-94.584;2023-08-21T03:30:08;23.10;55.20
62809;DHT22;48848;39.002;-94.584;2023-08-21T03:32:34;23.10;55.20
62809;DHT22;48848;39.002;-94.584;2023-08-21T03:34:59;23.00;55.10
62809;DHT22;48848;39.002;-94.584;2023-08-21T03:37:25;23.00;55.20
62809;DHT22;48848;39.002;-94.584;2023-08-21T03:39:52;23.00;55.30
62809;DHT22;48848;39.002;-94.584;2023-08-21T03:42:17;22.90;55.20
62809;DHT22;48848;39.002;-94.584;2023-08-21T03:44:43;22.90;55.30
62809;DHT22;48848;39.002;-94.584;2023-08-21T03:47:09;22.90;55.40
62809;DHT22;48848;39.002;-94.584;2023-08-21T03:49:35;22.80;55.40
62809;DHT22;48848;39.002;-94.584;2023-08-21T03:52:01;22.90;55.50
62809;DHT22;48848;39.002;-94.584;2023-08-21T03:54:27;22.90;55.60
62809;DHT22;48848;39.002;-94.584;2023-08-21T03:56:53;22.90;55.50
62809;DHT22;48848;39.002;-94.584;2023-08-21T03:59:19;22.80;55.40
62809;DHT22;48848;39.002;-94.584;2023-08-21T04:01:45;22.80;55.50
62809;DHT22;48848;39.002;-94.584;2023-08-21T04:04:11;22.80;55.40
62809;DHT22;48848;39.002;-94.584;2023-08-21T04:06:37;22.80;55.30
62809;DHT22;48848;39.002;-94.584;2023-08-21T04:09:03;22.80;55.30
62809;DHT22;48848;39.002;-94.584;2023-08-21T04:11:32;22.80;55.20
62809;DHT22;48848;39.002;-94.584;2023-08-21T04:13:58;22.70;55.20
62809;DHT22;48848;39.002;-94.584;2023-08-21T04:16:24;22.70;55.70
62809;DHT22;48848;39.002;-94.584;2023-08-21T04:18:50;22.70;55.20
62809;DHT22;48848;39.002;-94.584;2023-08-21T04:21:16;22.70;55.20
62809;DHT22;48848;39.002;-94.584;2023-08-21T04:23:43;22.70;55.20
62809;DHT22;48848;39.002;-94.584;2023-08-21T04:26:09;22.70;55.00
62809;DHT22;48848;39.002;-94.584;2023-08-21T04:28:35;22.70;55.20
62809;DHT22;48848;39.002;-94.584;2023-08-21T04:31:03;22.70;55.00
62809;DHT22;48848;39.002;-94.584;2023-08-21T04:33:29;22.60;55.10
62809;DHT22;48848;39.002;-94.584;2023-08-21T04:35:55;22.60;55.00
62809;DHT22;48848;39.002;-94.584;2023-08-21T04:38:21;22.60;55.00
62809;DHT22;48848;39.002;-94.584;2023-08-21T04:40:47;22.60;55.00
62809;DHT22;48848;39.002;-94.584;2023-08-21T04:43:13;22.60;55.10
62809;DHT22;48848;39.002;-94.584;2023-08-21T04:45:45;22.50;54.90
62809;DHT22;48848;39.002;-94.584;2023-08-21T04:48:11;22.50;54.90
62809;DHT22;48848;39.002;-94.584;2023-08-21T04:50:37;22.50;54.90
62809;DHT22;48848;39.002;-94.584;2023-08-21T04:53:02;22.50;55.00
62809;DHT22;48848;39.002;-94.584;2023-08-21T04:55:28;22.40;54.90
62809;DHT22;48848;39.002;-94.584;2023-08-21T04:57:54;22.50;54.90
62809;DHT22;48848;39.002;-94.584;2023-08-21T05:00:20;22.40;54.80
62809;DHT22;48848;39.002;-94.584;2023-08-21T05:02:46;22.40;54.80
62809;DHT22;48848;39.002;-94.584;2023-08-21T05:05:12;22.40;54.80
62809;DHT22;48848;39.002;-94.584;2023-08-21T05:07:38;22.40;54.80
62809;DHT22;48848;39.002;-94.584;2023-08-21T05:10:03;22.40;54.70
62809;DHT22;48848;39.002;-94.584;2023-08-21T05:12:30;22.40;54.70
62809;DHT22;48848;39.002;-94.584;2023-08-21T05:14:56;22.30;54.70
62809;DHT22;48848;39.002;-94.584;2023-08-21T05:17:21;22.30;54.70
62809;DHT22;48848;39.002;-94.584;2023-08-21T05:19:47;22.30;54.70
62809;DHT22;48848;39.002;-94.584;2023-08-21T05:22:13;22.30;54.60
62809;DHT22;48848;39.002;-94.584;2023-08-21T05:24:39;22.40;54.60
62809;DHT22;48848;39.002;-94.584;2023-08-21T05:27:05;22.30;54.60
62809;DHT22;48848;39.002;-94.584;2023-08-21T05:29:30;22.30;54.60
62809;DHT22;48848;39.002;-94.584;2023-08-21T05:31:56;22.30;54.50
62809;DHT22;48848;39.002;-94.584;2023-08-21T05:34:22;22.30;54.60
62809;DHT22;48848;39.002;-94.584;2023-08-21T05:36:48;22.30;54.50
62809;DHT22;48848;39.002;-94.584;2023-08-21T05:39:14;22.30;54.60
62809;DHT22;48848;39.002;-94.584;2023-08-21T05:41:40;22.30;54.50
62809;DHT22;48848;39.002;-94.584;2023-08-21T05:44:06;22.20;54.50
62809;DHT22;48848;39.002;-94.584;2023-08-21T05:46:31;22.20;54.40
62809;DHT22;48848;39.002;-94.584;2023-08-21T05:48:57;22.30;54.30
62809;DHT22;48848;39.002;-94.584;2023-08-21T05:51:23;22.20;54.50
62809;DHT22;48848;39.002;-94.584;2023-08-21T05:53:49;22.20;54.40
62809;DHT22;48848;39.002;-94.584;2023-08-21T05:56:15;22.20;54.40
62809;DHT22;48848;39.002;-94.584;2023-08-21T05:58:40;22.20;54.50
62809;DHT22;48848;39.002;-94.584;2023-08-21T06:01:06;22.20;54.50
62809;DHT22;48848;39.002;-94.584;2023-08-21T06:03:32;22.10;54.50
62809;DHT22;48848;39.002;-94.584;2023-08-21T06:05:58;22.10;54.50
62809;DHT22;48848;39.002;-94.584;2023-08-21T06:08:24;22.10;54.60
62809;DHT22;48848;39.002;-94.584;2023-08-21T06:10:52;22.10;54.70
62809;DHT22;48848;39.002;-94.584;2023-08-21T06:13:18;22.10;54.60
62809;DHT22;48848;39.002;-94.584;2023-08-21T06:15:44;22.10;54.50
62809;DHT22;48848;39.002;-94.584;2023-08-21T06:18:14;22.10;54.50
62809;DHT22;48848;39.002;-94.584;2023-08-21T06:20:42;22.00;54.50
62809;DHT22;48848;39.002;-94.584;2023-08-21T06:23:09;22.00;54.40
62809;DHT22;48848;39.002;-94.584;2023-08-21T06:25:36;22.00;54.50
62809;DHT22;48848;39.002;-94.584;2023-08-21T06:28:02;21.90;54.50
62809;DHT22;48848;39.002;-94.584;2023-08-21T06:30:28;21.90;54.50
62809;DHT22;48848;39.002;-94.584;2023-08-21T06:32:54;21.90;54.60
62809;DHT22;48848;39.002;-94.584;2023-08-21T06:35:20;22.00;54.50
62809;DHT22;48848;39.002;-94.584;2023-08-21T06:37:46;21.90;54.40
62809;DHT22;48848;39.002;-94.584;2023-08-21T06:40:11;21.90;54.50
62809;DHT22;48848;39.002;-94.584;2023-08-21T06:42:37;22.00;54.30
62809;DHT22;48848;39.002;-94.584;2023-08-21T06:45:04;21.80;54.30
62809;DHT22;48848;39.002;-94.584;2023-08-21T06:47:30;21.80;54.40
62809;DHT22;48848;39.002;-94.584;2023-08-21T06:49:56;21.80;54.40
62809;DHT22;48848;39.002;-94.584;2023-08-21T06:52:22;21.80;54.30
62809;DHT22;48848;39.002;-94.584;2023-08-21T06:54:48;21.80;54.30
62809;DHT22;48848;39.002;-94.584;2023-08-21T06:57:14;21.80;54.40
62809;DHT22;48848;39.002;-94.584;2023-08-21T06:59:40;21.80;54.30
62809;DHT22;48848;39.002;-94.584;2023-08-21T07:02:05;21.80;54.30
62809;DHT22;48848;39.002;-94.584;2023-08-21T07:04:32;21.80;54.40
62809;DHT22;48848;39.002;-94.584;2023-08-21T07:07:01;21.80;54.30
62809;DHT22;48848;39.002;-94.584;2023-08-21T07:09:26;21.70;54.10
62809;DHT22;48848;39.002;-94.584;2023-08-21T07:11:52;21.70;54.30
62809;DHT22;48848;39.002;-94.584;2023-08-21T07:14:19;21.70;54.20
62809;DHT22;48848;39.002;-94.584;2023-08-21T07:16:45;21.70;54.20
62809;DHT22;48848;39.002;-94.584;2023-08-21T07:19:10;21.70;54.20
62809;DHT22;48848;39.002;-94.584;2023-08-21T07:21:36;21.70;54.20
62809;DHT22;48848;39.002;-94.584;2023-08-21T07:24:03;21.70;54.20
62809;DHT22;48848;39.002;-94.584;2023-08-21T07:26:29;21.60;54.20
62809;DHT22;48848;39.002;-94.584;2023-08-21T07:28:55;21.70;54.40
62809;DHT22;48848;39.002;-94.584;2023-08-21T07:31:22;21.60;54.20
62809;DHT22;48848;39.002;-94.584;2023-08-21T07:33:48;21.60;54.20
62809;DHT22;48848;39.002;-94.584;2023-08-21T07:36:13;21.60;54.10
62809;DHT22;48848;39.002;-94.584;2023-08-21T07:38:45;21.50;54.10
62809;DHT22;48848;39.002;-94.584;2023-08-21T07:41:11;21.50;54.00
62809;DHT22;48848;39.002;-94.584;2023-08-21T07:43:39;21.60;54.20
62809;DHT22;48848;39.002;-94.584;2023-08-21T07:46:05;21.50;54.20
62809;DHT22;48848;39.002;-94.584;2023-08-21T07:48:32;21.50;54.20
62809;DHT22;48848;39.002;-94.584;2023-08-21T07:50:57;21.50;54.00
62809;DHT22;48848;39.002;-94.584;2023-08-21T07:53:24;21.50;54.00
62809;DHT22;48848;39.002;-94.584;2023-08-21T07:55:50;21.50;54.20
62809;DHT22;48848;39.002;-94.584;2023-08-21T07:58:16;21.40;54.20
62809;DHT22;48848;39.002;-94.584;2023-08-21T08:00:42;21.50;54.30
62809;DHT22;48848;39.002;-94.584;2023-08-21T08:03:11;21.50;54.20
62809;DHT22;48848;39.002;-94.584;2023-08-21T08:05:37;21.50;54.10
62809;DHT22;48848;39.002;-94.584;2023-08-21T08:08:03;21.40;54.10
62809;DHT22;48848;39.002;-94.584;2023-08-21T08:10:29;21.40;54.10
62809;DHT22;48848;39.002;-94.584;2023-08-21T08:12:55;21.40;54.10
62809;DHT22;48848;39.002;-94.584;2023-08-21T08:15:22;21.30;54.00
62809;DHT22;48848;39.002;-94.584;2023-08-21T08:17:48;21.40;54.00
62809;DHT22;48848;39.002;-94.584;2023-08-21T08:20:21;21.30;54.00
62809;DHT22;48848;39.002;-94.584;2023-08-21T08:22:47;21.30;54.00
62809;DHT22;48848;39.002;-94.584;2023-08-21T08:25:13;21.30;54.20
62809;DHT22;48848;39.002;-94.584;2023-08-21T08:27:39;21.30;54.00
62809;DHT22;48848;39.002;-94.584;2023-08-21T08:30:05;21.30;54.20
62809;DHT22;48848;39.002;-94.584;2023-08-21T08:32:31;21.30;54.20
62809;DHT22;48848;39.002;-94.584;2023-08-21T08:34:57;21.30;54.20
62809;DHT22;48848;39.002;-94.584;2023-08-21T08:37:23;21.30;54.20
62809;DHT22;48848;39.002;-94.584;2023-08-21T08:39:49;21.30;54.00
62809;DHT22;48848;39.002;-94.584;2023-08-21T08:42:14;21.30;54.30
62809;DHT22;48848;39.002;-94.584;2023-08-21T08:44:41;21.20;55.10
62809;DHT22;48848;39.002;-94.584;2023-08-21T08:47:08;21.20;54.10
62809;DHT22;48848;39.002;-94.584;2023-08-21T08:49:34;21.20;54.10
62809;DHT22;48848;39.002;-94.584;2023-08-21T08:52:00;21.20;54.20
62809;DHT22;48848;39.002;-94.584;2023-08-21T08:54:25;21.20;54.20
62809;DHT22;48848;39.002;-94.584;2023-08-21T08:56:52;21.20;54.10
62809;DHT22;48848;39.002;-94.584;2023-08-21T08:59:18;21.20;54.20
62809;DHT22;48848;39.002;-94.584;2023-08-21T09:01:44;21.10;54.10
62809;DHT22;48848;39.002;-94.584;2023-08-21T09:04:09;21.10;54.00
62809;DHT22;48848;39.002;-94.584;2023-08-21T09:06:35;21.10;54.00
62809;DHT22;48848;39.002;-94.584;2023-08-21T09:09:01;21.10;54.10
62809;DHT22;48848;39.002;-94.584;2023-08-21T09:11:27;21.10;54.10
62809;DHT22;48848;39.002;-94.584;2023-08-21T09:13:54;21.00;54.00
62809;DHT22;48848;39.002;-94.584;2023-08-21T09:16:21;21.10;54.00
62809;DHT22;48848;39.002;-94.584;2023-08-21T09:18:48;21.00;54.10
62809;DHT22;48848;39.002;-94.584;2023-08-21T09:21:17;21.00;54.10
62809;DHT22;48848;39.002;-94.584;2023-08-21T09:23:43;21.00;54.00
62809;DHT22;48848;39.002;-94.584;2023-08-21T09:26:17;21.00;54.10
62809;DHT22;48848;39.002;-94.584;2023-08-21T09:28:44;21.00;54.10
62809;DHT22;48848;39.002;-94.584;2023-08-21T09:31:10;20.90;54.00
62809;DHT22;48848;39.002;-94.584;2023-08-21T09:33:36;20.90;54.00
62809;DHT22;48848;39.002;-94.584;2023-08-21T09:36:02;20.90;54.00
62809;DHT22;48848;39.002;-94.584;2023-08-21T09:38:30;20.90;54.10
62809;DHT22;48848;39.002;-94.584;2023-08-21T09:40:56;20.90;54.20
62809;DHT22;48848;39.002;-94.584;2023-08-21T09:43:22;21.00;54.10
62809;DHT22;48848;39.002;-94.584;2023-08-21T09:45:49;20.90;54.10
62809;DHT22;48848;39.002;-94.584;2023-08-21T09:48:17;20.90;54.00
62809;DHT22;48848;39.002;-94.584;2023-08-21T09:50:43;20.90;54.10
62809;DHT22;48848;39.002;-94.584;2023-08-21T09:53:10;20.90;54.00
62809;DHT22;48848;39.002;-94.584;2023-08-21T09:55:36;20.90;54.00
62809;DHT22;48848;39.002;-94.584;2023-08-21T09:58:04;20.80;54.00
62809;DHT22;48848;39.002;-94.584;2023-08-21T10:00:30;20.80;54.00
62809;DHT22;48848;39.002;-94.584;2023-08-21T10:02:59;20.80;54.10
62809;DHT22;48848;39.002;-94.584;2023-08-21T10:05:25;20.80;54.00
62809;DHT22;48848;39.002;-94.584;2023-08-21T10:07:51;20.80;54.10
62809;DHT22;48848;39.002;-94.584;2023-08-21T10:10:18;20.80;54.00
62809;DHT22;48848;39.002;-94.584;2023-08-21T10:12:44;20.80;54.00
62809;DHT22;48848;39.002;-94.584;2023-08-21T10:15:10;20.80;54.00
62809;DHT22;48848;39.002;-94.584;2023-08-21T10:17:36;20.80;54.00
62809;DHT22;48848;39.002;-94.584;2023-08-21T10:20:06;20.70;54.00
62809;DHT22;48848;39.002;-94.584;2023-08-21T10:22:44;20.70;54.00
62809;DHT22;48848;39.002;-94.584;2023-08-21T10:25:20;20.70;54.10
62809;DHT22;48848;39.002;-94.584;2023-08-21T10:27:54;20.70;54.20
62809;DHT22;48848;39.002;-94.584;2023-08-21T10:30:24;20.70;54.10
62809;DHT22;48848;39.002;-94.584;2023-08-21T10:32:51;20.70;54.00
62809;DHT22;48848;39.002;-94.584;2023-08-21T10:35:18;20.70;54.10
62809;DHT22;48848;39.002;-94.584;2023-08-21T10:38:17;20.60;54.00
62809;DHT22;48848;39.002;-94.584;2023-08-21T10:40:37;20.60;54.00
62809;DHT22;48848;39.002;-94.584;2023-08-21T10:43:03;20.60;54.00
62809;DHT22;48848;39.002;-94.584;2023-08-21T10:45:29;20.60;54.10
62809;DHT22;48848;39.002;-94.584;2023-08-21T10:47:56;20.60;54.00
62809;DHT22;48848;39.002;-94.584;2023-08-21T10:50:22;20.60;54.20
62809;DHT22;48848;39.002;-94.584;2023-08-21T10:52:48;20.60;54.10
62809;DHT22;48848;39.002;-94.584;2023-08-21T10:55:16;20.50;54.20
62809;DHT22;48848;39.002;-94.584;2023-08-21T10:57:45;20.50;54.20
62809;DHT22;48848;39.002;-94.584;2023-08-21T11:00:12;20.50;54.20
62809;DHT22;48848;39.002;-94.584;2023-08-21T11:02:40;20.50;54.20
62809;DHT22;48848;39.002;-94.584;2023-08-21T11:05:07;20.50;54.20
62809;DHT22;48848;39.002;-94.584;2023-08-21T11:07:51;20.50;54.20
62809;DHT22;48848;39.002;-94.584;2023-08-21T11:10:17;20.50;54.10
62809;DHT22;48848;39.002;-94.584;2023-08-21T11:12:50;20.40;54.10
62809;DHT22;48848;39.002;-94.584;2023-08-21T11:15:17;20.40;54.20
62809;DHT22;48848;39.002;-94.584;2023-08-21T11:17:50;20.50;54.20
62809;DHT22;48848;39.002;-94.584;2023-08-21T11:20:16;20.50;54.10
62809;DHT22;48848;39.002;-94.584;2023-08-21T11:22:42;20.40;54.10
62809;DHT22;48848;39.002;-94.584;2023-08-21T11:25:08;20.30;54.20
62809;DHT22;48848;39.002;-94.584;2023-08-21T11:27:33;20.40;54.20
62809;DHT22;48848;39.002;-94.584;2023-08-21T11:29:59;20.40;54.20
62809;DHT22;48848;39.002;-94.584;2023-08-21T11:32:26;20.40;54.20
62809;DHT22;48848;39.002;-94.584;2023-08-21T11:34:53;20.40;54.20
62809;DHT22;48848;39.002;-94.584;2023-08-21T11:37:20;20.30;54.00
62809;DHT22;48848;39.002;-94.584;2023-08-21T11:40:06;20.30;54.10
62809;DHT22;48848;39.002;-94.584;2023-08-21T11:42:33;20.30;54.10
62809;DHT22;48848;39.002;-94.584;2023-08-21T11:44:59;20.30;54.00
62809;DHT22;48848;39.002;-94.584;2023-08-21T11:47:34;20.30;54.20
62809;DHT22;48848;39.002;-94.584;2023-08-21T11:50:04;20.30;54.10
62809;DHT22;48848;39.002;-94.584;2023-08-21T11:52:30;20.30;54.10
62809;DHT22;48848;39.002;-94.584;2023-08-21T11:54:57;20.30;54.20
62809;DHT22;48848;39.002;-94.584;2023-08-21T11:57:23;20.20;54.30
62809;DHT22;48848;39.002;-94.584;2023-08-21T11:59:53;20.20;54.50
62809;DHT22;48848;39.002;-94.584;2023-08-21T12:02:25;20.20;54.50
62809;DHT22;48848;39.002;-94.584;2023-08-21T12:04:54;20.30;54.50
62809;DHT22;48848;39.002;-94.584;2023-08-21T12:07:26;20.20;54.40
62809;DHT22;48848;39.002;-94.584;2023-08-21T12:09:51;20.20;54.40
62809;DHT22;48848;39.002;-94.584;2023-08-21T12:12:17;20.10;54.40
62809;DHT22;48848;39.002;-94.584;2023-08-21T12:14:43;20.10;54.30
62809;DHT22;48848;39.002;-94.584;2023-08-21T12:17:09;20.10;54.50
62809;DHT22;48848;39.002;-94.584;2023-08-21T12:19:35;20.10;54.50
62809;DHT22;48848;39.002;-94.584;2023-08-21T12:22:02;20.10;54.30
62809;DHT22;48848;39.002;-94.584;2023-08-21T12:24:28;20.10;54.40
62809;DHT22;48848;39.002;-94.584;2023-08-21T12:26:54;20.10;54.40
62809;DHT22;48848;39.002;-94.584;2023-08-21T12:29:19;20.10;54.40
62809;DHT22;48848;39.002;-94.584;2023-08-21T12:31:45;20.10;54.40
62809;DHT22;48848;39.002;-94.584;2023-08-21T12:34:12;20.10;54.40
62809;DHT22;48848;39.002;-94.584;2023-08-21T12:36:38;20.00;54.50
62809;DHT22;48848;39.002;-94.584;2023-08-21T12:39:04;20.10;54.60
62809;DHT22;48848;39.002;-94.584;2023-08-21T12:41:30;20.10;54.70
62809;DHT22;48848;39.002;-94.584;2023-08-21T12:43:56;20.10;54.80
62809;DHT22;48848;39.002;-94.584;2023-08-21T12:46:22;20.10;55.00
62809;DHT22;48848;39.002;-94.584;2023-08-21T12:48:48;20.10;55.00
62809;DHT22;48848;39.002;-94.584;2023-08-21T12:51:14;20.10;55.00
62809;DHT22;48848;39.002;-94.584;2023-08-21T12:53:40;20.10;54.90
62809;DHT22;48848;39.002;-94.584;2023-08-21T12:56:05;20.10;55.20
62809;DHT22;48848;39.002;-94.584;2023-08-21T12:58:31;20.10;55.00
62809;DHT22;48848;39.002;-94.584;2023-08-21T13:00:58;20.00;54.90
62809;DHT22;48848;39.002;-94.584;2023-08-21T13:03:24;20.10;56.00
62809;DHT22;48848;39.002;-94.584;2023-08-21T13:05:50;20.30;58.40
62809;DHT22;48848;39.002;-94.584;2023-08-21T13:08:16;20.60;57.20
62809;DHT22;48848;39.002;-94.584;2023-08-21T13:10:42;20.80;56.10
62809;DHT22;48848;39.002;-94.584;2023-08-21T13:13:07;20.90;55.40
62809;DHT22;48848;39.002;-94.584;2023-08-21T13:15:33;21.00;55.00
62809;DHT22;48848;39.002;-94.584;2023-08-21T13:17:59;21.20;54.60
62809;DHT22;48848;39.002;-94.584;2023-08-21T13:20:25;21.30;54.40
62809;DHT22;48848;39.002;-94.584;2023-08-21T13:22:51;21.30;54.50
62809;DHT22;48848;39.002;-94.584;2023-08-21T13:25:22;21.40;54.60
62809;DHT22;48848;39.002;-94.584;2023-08-21T13:27:49;21.50;54.60
62809;DHT22;48848;39.002;-94.584;2023-08-21T13:30:15;21.50;54.60
62809;DHT22;48848;39.002;-94.584;2023-08-21T13:32:41;21.60;54.60
62809;DHT22;48848;39.002;-94.584;2023-08-21T13:35:06;21.70;54.70
62809;DHT22;48848;39.002;-94.584;2023-08-21T13:37:34;21.70;54.70
62809;DHT22;48848;39.002;-94.584;2023-08-21T13:40:01;21.80;54.60
62809;DHT22;48848;39.002;-94.584;2023-08-21T13:42:34;21.80;54.50
62809;DHT22;48848;39.002;-94.584;2023-08-21T13:45:02;21.90;54.60
62809;DHT22;48848;39.002;-94.584;2023-08-21T13:47:29;22.00;54.70
62809;DHT22;48848;39.002;-94.584;2023-08-21T13:49:55;22.00;54.80
62809;DHT22;48848;39.002;-94.584;2023-08-21T13:52:21;22.00;55.00
62809;DHT22;48848;39.002;-94.584;2023-08-21T13:54:46;22.10;55.40
62809;DHT22;48848;39.002;-94.584;2023-08-21T13:57:12;22.10;55.50
62809;DHT22;48848;39.002;-94.584;2023-08-21T13:59:38;22.10;55.70
62809;DHT22;48848;39.002;-94.584;2023-08-21T14:02:04;22.20;55.90
62809;DHT22;48848;39.002;-94.584;2023-08-21T14:04:31;22.20;56.00
62809;DHT22;48848;39.002;-94.584;2023-08-21T14:06:57;22.30;56.10
62809;DHT22;48848;39.002;-94.584;2023-08-21T14:09:23;22.30;55.90
62809;DHT22;48848;39.002;-94.584;2023-08-21T14:11:49;22.30;55.70
62809;DHT22;48848;39.002;-94.584;2023-08-21T14:14:15;22.40;55.80
62809;DHT22;48848;39.002;-94.584;2023-08-21T14:16:41;22.40;56.00
62809;DHT22;48848;39.002;-94.584;2023-08-21T14:19:06;22.40;56.50
62809;DHT22;48848;39.002;-94.584;2023-08-21T14:21:32;22.50;56.50
62809;DHT22;48848;39.002;-94.584;2023-08-21T14:23:58;22.60;56.90
62809;DHT22;48848;39.002;-94.584;2023-08-21T14:26:24;22.60;56.80
62809;DHT22;48848;39.002;-94.584;2023-08-21T14:28:50;22.60;56.00
62809;DHT22;48848;39.002;-94.584;2023-08-21T14:31:16;22.40;54.70
62809;DHT22;48848;39.002;-94.584;2023-08-21T14:33:43;22.10;54.70
62809;DHT22;48848;39.002;-94.584;2023-08-21T14:36:09;22.00;55.80
62809;DHT22;48848;39.002;-94.584;2023-08-21T14:38:34;21.80;55.10
62809;DHT22;48848;39.002;-94.584;2023-08-21T14:41:00;21.70;55.20
62809;DHT22;48848;39.002;-94.584;2023-08-21T14:43:26;21.60;55.10
62809;DHT22;48848;39.002;-94.584;2023-08-21T14:45:53;21.50;55.40
62809;DHT22;48848;39.002;-94.584;2023-08-21T14:48:19;21.40;55.60
62809;DHT22;48848;39.002;-94.584;2023-08-21T14:50:45;21.50;55.60
62809;DHT22;48848;39.002;-94.584;2023-08-21T14:53:11;21.30;55.70
62809;DHT22;48848;39.002;-94.584;2023-08-21T14:55:37;21.30;55.70
62809;DHT22;48848;39.002;-94.584;2023-08-21T14:58:03;21.30;55.80
62809;DHT22;48848;39.002;-94.584;2023-08-21T15:00:32;21.30;55.70
62809;DHT22;48848;39.002;-94.584;2023-08-21T15:02:58;21.20;55.70